sensor_id;sensor_type;location;lat;lon;timestamp;temperature;humidity
37642;DHT22;23486;51.956;5.888;2024-03-23T00:55:51;7.70;99.90
37642;DHT22;23486;51.956;5.888;2024-03-23T00:58:17;7.60;99.90
37642;DHT22;23486;51.956;5.888;2024-03-23T01:00:42;7.60;99.90
37642;DHT22;23486;51.956;5.888;2024-03-23T01:03:08;7.60;99.90
37642;DHT22;23486;51.956;5.888;2024-03-23T01:05:33;7.50;99.90
37642;DHT22;23486;51.956;5.888;2024-03-23T01:07:59;7.50;99.90
37642;DHT22;23486;51.956;5.888;2024-03-23T01:10:24;7.50;99.90
37642;DHT22;23486;51.956;5.888;2024-03-23T01:12:49;7.50;99.90
37642;DHT22;23486;51.956;5.888;2024-03-23T01:15:15;7.50;99.90
37642;DHT22;23486;51.956;5.888;2024-03-23T01:17:40;7.50;99.90
37642;DHT22;23486;51.956;5.888;2024-03-23T01:20:06;7.50;99.90
37642;DHT22;23486;51.956;5.888;2024-03-23T01:22:32;7.50;99.90
37642;DHT22;23486;51.956;5.888;2024-03-23T01:24:58;7.50;99.90
37642;DHT22;23486;51.956;5.888;2024-03-23T01:27:23;7.50;99.90
37642;DHT22;23486;51.956;5.888;2024-03-23T01:29:49;7.40;99.90
37642;DHT22;23486;51.956;5.888;2024-03-23T01:32:14;7.40;99.90
37642;DHT22;23486;51.956;5.888;2024-03-23T01:34:40;7.40;99.90
37642;DHT22;23486;51.956;5.888;2024-03-23T01:37:05;7.40;99.90
37642;DHT22;23486;51.956;5.888;2024-03-23T01:39:31;7.40;99.90
37642;DHT22;23486;51.956;5.888;2024-03-23T01:41:56;7.40;99.90
37642;DHT22;23486;51.956;5.888;2024-03-23T01:44:22;7.30;99.90
37642;DHT22;23486;51.956;5.888;2024-03-23T01:46:47;7.30;99.90
37642;DHT22;23486;51.956;5.888;2024-03-23T01:49:13;7.30;99.90
37642;DHT22;23486;51.956;5.888;2024-03-23T01:51:38;7.30;99.90
37642;DHT22;23486;51.956;5.888;2024-03-23T01:54:04;7.30;99.90
37642;DHT22;23486;51.956;5.888;2024-03-23T01:56:34;7.30;99.90
37642;DHT22;23486;51.956;5.888;2024-03-23T01:59:01;7.40;99.90
37642;DHT22;23486;51.956;5.888;2024-03-23T02:01:26;7.40;99.90
37642;DHT22;23486;51.956;5.888;2024-03-23T02:03:51;7.30;99.90
37642;DHT22;23486;51.956;5.888;2024-03-23T02:06:17;7.30;99.90
37642;DHT22;23486;51.956;5.888;2024-03-23T02:08:43;7.40;99.90
37642;DHT22;23486;51.956;5.888;2024-03-23T02:11:11;7.30;99.90
37642;DHT22;23486;51.956;5.888;2024-03-23T02:13:37;7.30;99.90
37642;DHT22;23486;51.956;5.888;2024-03-23T02:16:02;7.30;99.90
37642;DHT22;23486;51.956;5.888;2024-03-23T02:18:29;7.30;99.90
37642;DHT22;23486;51.956;5.888;2024-03-23T02:20:54;7.20;99.90
37642;DHT22;23486;51.956;5.888;2024-03-23T02:23:20;7.20;99.90
37642;DHT22;23486;51.956;5.888;2024-03-23T02:25:45;7.20;99.90
37642;DHT22;23486;51.956;5.888;2024-03-23T02:28:13;7.10;99.90
37642;DHT22;23486;51.956;5.888;2024-03-23T02:30:39;7.20;99.90
37642;DHT22;23486;51.956;5.888;2024-03-23T02:33:05;7.10;99.90
37642;DHT22;23486;51.956;5.888;2024-03-23T02:35:30;7.20;99.90
37642;DHT22;23486;51.956;5.888;2024-03-23T02:37:55;7.10;99.90
37642;DHT22;23486;51.956;5.888;2024-03-23T02:40:25;7.20;99.90
37642;DHT22;23486;51.956;5.888;2024-03-23T02:42:51;7.10;99.90
37642;DHT22;23486;51.956;5.888;2024-03-23T02:45:16;7.10;99.90
37642;DHT22;23486;51.956;5.888;2024-03-23T02:47:42;7.00;99.90
37642;DHT22;23486;51.956;5.888;2024-03-23T02:50:08;7.00;99.90
37642;DHT22;23486;51.956;5.888;2024-03-23T02:52:34;6.90;99.90
37642;DHT22;23486;51.956;5.888;2024-03-23T02:54:59;6.90;99.90
37642;DHT22;23486;51.956;5.888;2024-03-23T02:57:27;6.80;99.90
37642;DHT22;23486;51.956;5.888;2024-03-23T02:59:52;6.80;99.90
37642;DHT22;23486;51.956;5.888;2024-03-23T03:02:18;6.80;99.90
37642;DHT22;23486;51.956;5.888;2024-03-23T03:04:43;6.80;99.90
37642;DHT22;23486;51.956;5.888;2024-03-23T03:07:09;6.80;99.90
37642;DHT22;23486;51.956;5.888;2024-03-23T03:09:34;6.70;99.90
37642;DHT22;23486;51.956;5.888;2024-03-23T03:12:01;6.70;99.90
37642;DHT22;23486;51.956;5.888;2024-03-23T03:14:27;6.70;99.90
37642;DHT22;23486;51.956;5.888;2024-03-23T03:16:53;6.70;99.90
37642;DHT22;23486;51.956;5.888;2024-03-23T03:19:19;6.60;99.90
37642;DHT22;23486;51.956;5.888;2024-03-23T03:21:44;6.60;99.90
37642;DHT22;23486;51.956;5.888;2024-03-23T03:24:09;6.50;99.90
37642;DHT22;23486;51.956;5.888;2024-03-23T03:26:35;6.50;99.90
37642;DHT22;23486;51.956;5.888;2024-03-23T03:29:00;6.50;99.90
37642;DHT22;23486;51.956;5.888;2024-03-23T03:31:26;6.50;99.90
37642;DHT22;23486;51.956;5.888;2024-03-23T03:33:51;6.50;99.90
37642;DHT22;23486;51.956;5.888;2024-03-23T03:36:17;6.50;99.90
37642;DHT22;23486;51.956;5.888;2024-03-23T03:38:42;6.50;99.90
37642;DHT22;23486;51.956;5.888;2024-03-23T03:41:08;6.50;99.90
37642;DHT22;23486;51.956;5.888;2024-03-23T03:43:33;6.50;99.90
37642;DHT22;23486;51.956;5.888;2024-03-23T03:46:00;6.50;99.90
37642;DHT22;23486;51.956;5.888;2024-03-23T03:48:25;6.50;99.90
37642;DHT22;23486;51.956;5.888;2024-03-23T03:50:51;6.60;99.90
37642;DHT22;23486;51.956;5.888;2024-03-23T03:53:17;6.50;99.90
37642;DHT22;23486;51.956;5.888;2024-03-23T03:55:42;6.50;99.90
37642;DHT22;23486;51.956;5.888;2024-03-23T03:58:08;6.50;99.90
37642;DHT22;23486;51.956;5.888;2024-03-23T04:00:33;6.50;99.90
37642;DHT22;23486;51.956;5.888;2024-03-23T04:02:59;6.40;99.90
37642;DHT22;23486;51.956;5.888;2024-03-23T04:05:24;6.40;99.90
37642;DHT22;23486;51.956;5.888;2024-03-23T04:07:50;6.40;99.90
37642;DHT22;23486;51.956;5.888;2024-03-23T04:10:15;6.30;99.90
37642;DHT22;23486;51.956;5.888;2024-03-23T04:12:41;6.30;99.90
37642;DHT22;23486;51.956;5.888;2024-03-23T04:15:07;6.20;99.90
37642;DHT22;23486;51.956;5.888;2024-03-23T04:17:32;6.20;99.90
37642;DHT22;23486;51.956;5.888;2024-03-23T04:19:59;6.20;99.90
37642;DHT22;23486;51.956;5.888;2024-03-23T04:22:25;6.20;99.90
37642;DHT22;23486;51.956;5.888;2024-03-23T04:25:00;6.10;99.90
37642;DHT22;23486;51.956;5.888;2024-03-23T04:27:34;6.10;99.90
37642;DHT22;23486;51.956;5.888;2024-03-23T04:29:59;6.00;99.90
37642;DHT22;23486;51.956;5.888;2024-03-23T04:32:26;6.00;99.90
37642;DHT22;23486;51.956;5.888;2024-03-23T04:34:52;6.00;99.90
37642;DHT22;23486;51.956;5.888;2024-03-23T04:37:17;6.00;99.90
37642;DHT22;23486;51.956;5.888;2024-03-23T04:39:43;5.90;99.90
37642;DHT22;23486;51.956;5.888;2024-03-23T04:42:08;5.90;99.90
37642;DHT22;23486;51.956;5.888;2024-03-23T04:44:34;6.00;99.90
37642;DHT22;23486;51.956;5.888;2024-03-23T04:47:02;5.80;99.90
37642;DHT22;23486;51.956;5.888;2024-03-23T04:49:28;5.80;99.90
37642;DHT22;23486;51.956;5.888;2024-03-23T04:51:53;5.70;99.90
37642;DHT22;23486;51.956;5.888;2024-03-23T04:54:19;5.70;99.90
37642;DHT22;23486;51.956;5.888;2024-03-23T04:56:45;5.70;99.90
37642;DHT22;23486;51.956;5.888;2024-03-23T04:59:10;5.70;99.90
37642;DHT22;23486;51.956;5.888;2024-03-23T05:01:36;5.70;99.90
37642;DHT22;23486;51.956;5.888;2024-03-23T05:04:04;5.60;99.90
37642;DHT22;23486;51.956;5.888;2024-03-23T05:06:29;5.60;99.90
37642;DHT22;23486;51.956;5.888;2024-03-23T05:08:54;5.60;99.90
37642;DHT22;23486;51.956;5.888;2024-03-23T05:11:20;5.50;99.90
37642;DHT22;23486;51.956;5.888;2024-03-23T05:13:46;5.50;99.90
37642;DHT22;23486;51.956;5.888;2024-03-23T05:16:11;5.50;99.90
37642;DHT22;23486;51.956;5.888;2024-03-23T05:18:37;5.50;99.90
37642;DHT22;23486;51.956;5.888;2024-03-23T05:21:02;5.50;99.90
37642;DHT22;23486;51.956;5.888;2024-03-23T05:23:28;5.50;99.90
37642;DHT22;23486;51.956;5.888;2024-03-23T05:25:54;5.50;99.90
37642;DHT22;23486;51.956;5.888;2024-03-23T05:28:20;5.50;99.90
37642;DHT22;23486;51.956;5.888;2024-03-23T05:30:52;5.50;99.90
37642;DHT22;23486;51.956;5.888;2024-03-23T05:33:21;5.60;99.90
37642;DHT22;23486;51.956;5.888;2024-03-23T05:35:46;5.60;99.90
37642;DHT22;23486;51.956;5.888;2024-03-23T05:38:13;5.60;99.90
37642;DHT22;23486;51.956;5.888;2024-03-23T05:40:39;5.60;99.90
37642;DHT22;23486;51.956;5.888;2024-03-23T05:43:08;5.60;99.90
37642;DHT22;23486;51.956;5.888;2024-03-23T05:45:34;5.50;99.90
37642;DHT22;23486;51.956;5.888;2024-03-23T05:48:00;5.50;99.90
37642;DHT22;23486;51.956;5.888;2024-03-23T05:50:25;5.40;99.90
37642;DHT22;23486;51.956;5.888;2024-03-23T05:52:50;5.40;99.90
37642;DHT22;23486;51.956;5.888;2024-03-23T05:55:16;5.40;99.90
37642;DHT22;23486;51.956;5.888;2024-03-23T05:57:41;5.40;99.90
37642;DHT22;23486;51.956;5.888;2024-03-23T06:00:07;5.30;99.90
37642;DHT22;23486;51.956;5.888;2024-03-23T06:02:41;5.30;99.90
37642;DHT22;23486;51.956;5.888;2024-03-23T06:05:06;5.30;99.90
37642;DHT22;23486;51.956;5.888;2024-03-23T06:07:32;5.30;99.90
37642;DHT22;23486;51.956;5.888;2024-03-23T06:09:58;5.30;99.90
37642;DHT22;23486;51.956;5.888;2024-03-23T06:12:24;5.40;99.90
37642;DHT22;23486;51.956;5.888;2024-03-23T06:14:50;5.40;99.90
37642;DHT22;23486;51.956;5.888;2024-03-23T06:17:15;5.40;99.90
37642;DHT22;23486;51.956;5.888;2024-03-23T06:19:41;5.40;99.90
37642;DHT22;23486;51.956;5.888;2024-03-23T06:22:06;5.40;99.90
37642;DHT22;23486;51.956;5.888;2024-03-23T06:24:32;5.40;99.90
37642;DHT22;23486;51.956;5.888;2024-03-23T06:26:57;5.40;99.90
37642;DHT22;23486;51.956;5.888;2024-03-23T06:29:23;5.50;99.90
37642;DHT22;23486;51.956;5.888;2024-03-23T06:31:53;5.60;99.90
37642;DHT22;23486;51.956;5.888;2024-03-23T06:34:18;5.60;99.90
37642;DHT22;23486;51.956;5.888;2024-03-23T06:36:44;5.70;99.90
37642;DHT22;23486;51.956;5.888;2024-03-23T06:39:09;5.90;99.90
37642;DHT22;23486;51.956;5.888;2024-03-23T06:41:37;5.90;99.90
37642;DHT22;23486;51.956;5.888;2024-03-23T06:44:03;5.80;99.90
37642;DHT22;23486;51.956;5.888;2024-03-23T06:46:29;5.90;99.90
37642;DHT22;23486;51.956;5.888;2024-03-23T06:48:54;5.90;99.90
37642;DHT22;23486;51.956;5.888;2024-03-23T06:51:19;6.10;99.90
37642;DHT22;23486;51.956;5.888;2024-03-23T06:53:45;6.20;99.90
37642;DHT22;23486;51.956;5.888;2024-03-23T06:56:10;6.20;99.90
37642;DHT22;23486;51.956;5.888;2024-03-23T06:58:36;6.20;99.90
37642;DHT22;23486;51.956;5.888;2024-03-23T07:01:02;6.20;99.90
37642;DHT22;23486;51.956;5.888;2024-03-23T07:03:27;6.20;99.90
37642;DHT22;23486;51.956;5.888;2024-03-23T07:05:53;6.30;99.90
37642;DHT22;23486;51.956;5.888;2024-03-23T07:08:22;6.40;99.90
37642;DHT22;23486;51.956;5.888;2024-03-23T07:10:48;6.40;99.90
37642;DHT22;23486;51.956;5.888;2024-03-23T07:13:13;6.50;99.90
37642;DHT22;23486;51.956;5.888;2024-03-23T07:15:39;6.40;99.90
37642;DHT22;23486;51.956;5.888;2024-03-23T07:18:04;6.60;99.90
37642;DHT22;23486;51.956;5.888;2024-03-23T07:20:30;6.60;99.90
37642;DHT22;23486;51.956;5.888;2024-03-23T07:22:56;6.60;99.90
37642;DHT22;23486;51.956;5.888;2024-03-23T07:25:22;6.50;99.90
37642;DHT22;23486;51.956;5.888;2024-03-23T07:27:48;6.50;99.90
37642;DHT22;23486;51.956;5.888;2024-03-23T07:30:14;6.50;99.90
37642;DHT22;23486;51.956;5.888;2024-03-23T07:32:39;6.60;99.90
37642;DHT22;23486;51.956;5.888;2024-03-23T07:35:05;6.50;99.90
37642;DHT22;23486;51.956;5.888;2024-03-23T07:37:30;6.50;99.90
37642;DHT22;23486;51.956;5.888;2024-03-23T07:39:56;6.50;99.90
37642;DHT22;23486;51.956;5.888;2024-03-23T07:42:23;6.40;99.90
37642;DHT22;23486;51.956;5.888;2024-03-23T07:44:48;6.50;99.90
37642;DHT22;23486;51.956;5.888;2024-03-23T07:47:14;6.50;99.90
37642;DHT22;23486;51.956;5.888;2024-03-23T07:49:40;6.40;99.90
37642;DHT22;23486;51.956;5.888;2024-03-23T07:52:08;6.50;99.90
37642;DHT22;23486;51.956;5.888;2024-03-23T07:54:33;6.50;99.90
37642;DHT22;23486;51.956;5.888;2024-03-23T07:56:59;6.50;99.90
37642;DHT22;23486;51.956;5.888;2024-03-23T07:59:24;6.60;99.90
37642;DHT22;23486;51.956;5.888;2024-03-23T08:01:50;6.60;99.90
37642;DHT22;23486;51.956;5.888;2024-03-23T08:04:16;6.60;99.90
37642;DHT22;23486;51.956;5.888;2024-03-23T08:06:41;6.70;99.90
37642;DHT22;23486;51.956;5.888;2024-03-23T08:09:07;6.70;99.90
37642;DHT22;23486;51.956;5.888;2024-03-23T08:11:32;6.90;99.90
37642;DHT22;23486;51.956;5.888;2024-03-23T08:14:01;7.10;99.90
37642;DHT22;23486;51.956;5.888;2024-03-23T08:16:27;7.20;99.90
37642;DHT22;23486;51.956;5.888;2024-03-23T08:18:52;7.30;99.90
37642;DHT22;23486;51.956;5.888;2024-03-23T08:21:18;7.40;99.90
37642;DHT22;23486;51.956;5.888;2024-03-23T08:26:09;7.50;99.90
37642;DHT22;23486;51.956;5.888;2024-03-23T08:28:35;7.60;99.90
37642;DHT22;23486;51.956;5.888;2024-03-23T08:31:02;7.70;99.90
37642;DHT22;23486;51.956;5.888;2024-03-23T08:33:28;7.70;99.90
37642;DHT22;23486;51.956;5.888;2024-03-23T08:35:54;7.70;99.90
37642;DHT22;23486;51.956;5.888;2024-03-23T08:38:22;7.90;99.90
37642;DHT22;23486;51.956;5.888;2024-03-23T08:40:48;8.00;99.90
37642;DHT22;23486;51.956;5.888;2024-03-23T08:43:13;8.00;99.90
37642;DHT22;23486;51.956;5.888;2024-03-23T08:45:39;8.00;99.90
37642;DHT22;23486;51.956;5.888;2024-03-23T08:48:04;8.10;99.90
37642;DHT22;23486;51.956;5.888;2024-03-23T08:50:30;8.20;99.90
37642;DHT22;23486;51.956;5.888;2024-03-23T08:52:55;8.20;99.90
37642;DHT22;23486;51.956;5.888;2024-03-23T08:55:21;8.40;99.90
37642;DHT22;23486;51.956;5.888;2024-03-23T08:57:46;8.60;99.90
37642;DHT22;23486;51.956;5.888;2024-03-23T09:00:12;8.70;99.90
37642;DHT22;23486;51.956;5.888;2024-03-23T09:02:40;8.80;99.90
37642;DHT22;23486;51.956;5.888;2024-03-23T09:05:06;8.90;99.90
37642;DHT22;23486;51.956;5.888;2024-03-23T09:07:32;8.90;99.90
37642;DHT22;23486;51.956;5.888;2024-03-23T09:09:57;8.80;99.90
37642;DHT22;23486;51.956;5.888;2024-03-23T09:12:23;8.80;99.90
37642;DHT22;23486;51.956;5.888;2024-03-23T09:14:49;8.60;99.90
37642;DHT22;23486;51.956;5.888;2024-03-23T09:17:15;8.40;99.90
37642;DHT22;23486;51.956;5.888;2024-03-23T09:19:40;8.30;99.90
37642;DHT22;23486;51.956;5.888;2024-03-23T09:22:05;8.20;99.90
37642;DHT22;23486;51.956;5.888;2024-03-23T09:24:31;8.00;99.90
37642;DHT22;23486;51.956;5.888;2024-03-23T09:26:57;7.90;99.90
37642;DHT22;23486;51.956;5.888;2024-03-23T09:29:23;7.50;99.90
37642;DHT22;23486;51.956;5.888;2024-03-23T09:31:48;7.20;99.90
37642;DHT22;23486;51.956;5.888;2024-03-23T09:34:14;7.10;99.90
37642;DHT22;23486;51.956;5.888;2024-03-23T09:36:42;7.10;99.90
37642;DHT22;23486;51.956;5.888;2024-03-23T09:39:07;7.20;99.90
37642;DHT22;23486;51.956;5.888;2024-03-23T09:41:34;7.30;99.90
37642;DHT22;23486;51.956;5.888;2024-03-23T09:44:00;7.40;99.90
37642;DHT22;23486;51.956;5.888;2024-03-23T09:46:26;7.40;99.90
37642;DHT22;23486;51.956;5.888;2024-03-23T09:48:53;7.40;99.90
37642;DHT22;23486;51.956;5.888;2024-03-23T09:51:18;7.40;99.90
37642;DHT22;23486;51.956;5.888;2024-03-23T09:53:44;7.40;99.90
37642;DHT22;23486;51.956;5.888;2024-03-23T09:56:09;7.50;99.90
37642;DHT22;23486;51.956;5.888;2024-03-23T09:58:35;7.60;99.90
37642;DHT22;23486;51.956;5.888;2024-03-23T10:01:01;7.80;99.90
37642;DHT22;23486;51.956;5.888;2024-03-23T10:03:26;8.00;99.90
37642;DHT22;23486;51.956;5.888;2024-03-23T10:06:01;8.30;99.90
37642;DHT22;23486;51.956;5.888;2024-03-23T10:08:27;8.60;99.90
37642;DHT22;23486;51.956;5.888;2024-03-23T10:10:54;8.80;99.90
37642;DHT22;23486;51.956;5.888;2024-03-23T10:13:26;8.80;99.90
37642;DHT22;23486;51.956;5.888;2024-03-23T10:15:58;8.90;99.90
37642;DHT22;23486;51.956;5.888;2024-03-23T10:18:24;9.00;99.90
37642;DHT22;23486;51.956;5.888;2024-03-23T10:23:30;9.10;99.90
37642;DHT22;23486;51.956;5.888;2024-03-23T10:26:12;9.00;99.90
37642;DHT22;23486;51.956;5.888;2024-03-23T10:28:37;9.00;99.90
37642;DHT22;23486;51.956;5.888;2024-03-23T10:31:15;9.20;99.90
37642;DHT22;23486;51.956;5.888;2024-03-23T10:33:44;9.40;99.90
37642;DHT22;23486;51.956;5.888;2024-03-23T10:36:09;9.30;99.90
37642;DHT22;23486;51.956;5.888;2024-03-23T10:38:35;9.10;99.90
37642;DHT22;23486;51.956;5.888;2024-03-23T10:41:01;8.90;99.90
37642;DHT22;23486;51.956;5.888;2024-03-23T10:43:27;8.70;99.90
37642;DHT22;23486;51.956;5.888;2024-03-23T10:45:52;8.70;99.90
37642;DHT22;23486;51.956;5.888;2024-03-23T10:48:18;8.70;99.90
37642;DHT22;23486;51.956;5.888;2024-03-23T10:50:46;8.80;99.90
37642;DHT22;23486;51.956;5.888;2024-03-23T10:53:28;8.80;99.90
37642;DHT22;23486;51.956;5.888;2024-03-23T10:55:54;9.00;99.90
37642;DHT22;23486;51.956;5.888;2024-03-23T10:58:21;9.30;99.90
37642;DHT22;23486;51.956;5.888;2024-03-23T11:00:49;9.40;99.90
37642;DHT22;23486;51.956;5.888;2024-03-23T11:05:59;9.80;99.90
37642;DHT22;23486;51.956;5.888;2024-03-23T11:08:35;9.90;99.90
37642;DHT22;23486;51.956;5.888;2024-03-23T11:11:14;9.90;99.90
37642;DHT22;23486;51.956;5.888;2024-03-23T11:13:39;9.90;99.90
37642;DHT22;23486;51.956;5.888;2024-03-23T11:16:23;9.80;99.90
37642;DHT22;23486;51.956;5.888;2024-03-23T11:18:49;9.70;99.90
37642;DHT22;23486;51.956;5.888;2024-03-23T11:24:12;9.60;99.90
37642;DHT22;23486;51.956;5.888;2024-03-23T11:26:38;9.70;99.90
37642;DHT22;23486;51.956;5.888;2024-03-23T11:29:10;9.80;99.90
37642;DHT22;23486;51.956;5.888;2024-03-23T11:31:37;9.90;99.90
37642;DHT22;23486;51.956;5.888;2024-03-23T11:34:03;10.10;99.90
37642;DHT22;23486;51.956;5.888;2024-03-23T11:36:29;10.10;99.90
37642;DHT22;23486;51.956;5.888;2024-03-23T11:38:54;10.20;99.90
37642;DHT22;23486;51.956;5.888;2024-03-23T11:41:20;10.20;99.90
37642;DHT22;23486;51.956;5.888;2024-03-23T11:43:45;10.20;99.90
37642;DHT22;23486;51.956;5.888;2024-03-23T11:46:11;10.20;99.90
37642;DHT22;23486;51.956;5.888;2024-03-23T11:48:36;10.20;99.90
37642;DHT22;23486;51.956;5.888;2024-03-23T11:51:02;10.10;99.90
37642;DHT22;23486;51.956;5.888;2024-03-23T11:53:28;9.90;99.90
37642;DHT22;23486;51.956;5.888;2024-03-23T11:55:55;9.90;99.90
37642;DHT22;23486;51.956;5.888;2024-03-23T11:58:21;9.90;99.90
37642;DHT22;23486;51.956;5.888;2024-03-23T12:03:16;9.90;99.90
37642;DHT22;23486;51.956;5.888;2024-03-23T12:05:47;9.90;99.90
37642;DHT22;23486;51.956;5.888;2024-03-23T12:08:22;9.90;99.90
37642;DHT22;23486;51.956;5.888;2024-03-23T12:10:52;9.90;99.90
37642;DHT22;23486;51.956;5.888;2024-03-23T12:13:18;10.00;99.90
37642;DHT22;23486;51.956;5.888;2024-03-23T12:15:45;10.00;99.90
37642;DHT22;23486;51.956;5.888;2024-03-23T12:18:10;9.90;99.90
37642;DHT22;23486;51.956;5.888;2024-03-23T12:20:37;9.80;99.90
37642;DHT22;23486;51.956;5.888;2024-03-23T12:23:09;9.70;99.90
37642;DHT22;23486;51.956;5.888;2024-03-23T12:25:36;9.60;99.90
37642;DHT22;23486;51.956;5.888;2024-03-23T12:28:02;9.50;99.90
37642;DHT22;23486;51.956;5.888;2024-03-23T12:30:28;9.40;99.90
37642;DHT22;23486;51.956;5.888;2024-03-23T12:32:53;9.40;99.90
37642;DHT22;23486;51.956;5.888;2024-03-23T12:35:19;9.50;99.90
37642;DHT22;23486;51.956;5.888;2024-03-23T12:37:45;9.50;99.90
37642;DHT22;23486;51.956;5.888;2024-03-23T12:40:10;9.70;99.90
37642;DHT22;23486;51.956;5.888;2024-03-23T12:42:36;9.80;99.90
37642;DHT22;23486;51.956;5.888;2024-03-23T12:45:05;9.90;99.90
37642;DHT22;23486;51.956;5.888;2024-03-23T12:47:33;10.10;99.90
37642;DHT22;23486;51.956;5.888;2024-03-23T12:49:59;10.30;99.90
37642;DHT22;23486;51.956;5.888;2024-03-23T12:52:24;10.60;99.90
37642;DHT22;23486;51.956;5.888;2024-03-23T12:54:56;10.80;99.90
37642;DHT22;23486;51.956;5.888;2024-03-23T12:57:25;10.90;99.90
37642;DHT22;23486;51.956;5.888;2024-03-23T12:59:53;11.00;99.90
37642;DHT22;23486;51.956;5.888;2024-03-23T13:02:22;11.20;99.90
37642;DHT22;23486;51.956;5.888;2024-03-23T13:04:51;11.30;99.90
37642;DHT22;23486;51.956;5.888;2024-03-23T13:07:17;11.30;99.90
37642;DHT22;23486;51.956;5.888;2024-03-23T13:09:43;11.30;99.90
37642;DHT22;23486;51.956;5.888;2024-03-23T13:12:08;11.40;99.90
37642;DHT22;23486;51.956;5.888;2024-03-23T13:14:34;11.40;99.90
37642;DHT22;23486;51.956;5.888;2024-03-23T13:17:02;11.40;99.90
37642;DHT22;23486;51.956;5.888;2024-03-23T13:19:29;11.50;99.90
37642;DHT22;23486;51.956;5.888;2024-03-23T13:21:59;11.60;99.90
37642;DHT22;23486;51.956;5.888;2024-03-23T13:24:25;11.50;99.90
37642;DHT22;23486;51.956;5.888;2024-03-23T13:26:51;11.40;99.90
37642;DHT22;23486;51.956;5.888;2024-03-23T13:29:17;11.30;99.90
37642;DHT22;23486;51.956;5.888;2024-03-23T13:31:43;11.20;99.90
37642;DHT22;23486;51.956;5.888;2024-03-23T13:34:08;11.00;99.90
37642;DHT22;23486;51.956;5.888;2024-03-23T13:36:34;10.60;99.90
37642;DHT22;23486;51.956;5.888;2024-03-23T13:39:01;10.30;99.90
37642;DHT22;23486;51.956;5.888;2024-03-23T13:41:27;10.10;99.90
37642;DHT22;23486;51.956;5.888;2024-03-23T13:43:53;10.00;99.90
37642;DHT22;23486;51.956;5.888;2024-03-23T13:46:18;10.00;99.90
37642;DHT22;23486;51.956;5.888;2024-03-23T13:48:44;10.10;99.90
37642;DHT22;23486;51.956;5.888;2024-03-23T13:51:09;10.30;99.90
37642;DHT22;23486;51.956;5.888;2024-03-23T13:53:35;10.60;99.90
37642;DHT22;23486;51.956;5.888;2024-03-23T13:56:00;10.80;99.90
37642;DHT22;23486;51.956;5.888;2024-03-23T13:58:26;10.90;99.90
37642;DHT22;23486;51.956;5.888;2024-03-23T14:00:51;10.80;99.90
37642;DHT22;23486;51.956;5.888;2024-03-23T14:03:17;10.60;99.90
37642;DHT22;23486;51.956;5.888;2024-03-23T14:05:43;10.40;99.90
37642;DHT22;23486;51.956;5.888;2024-03-23T14:08:09;10.30;99.90
37642;DHT22;23486;51.956;5.888;2024-03-23T14:10:35;10.20;99.90
37642;DHT22;23486;51.956;5.888;2024-03-23T14:13:01;10.00;99.90
37642;DHT22;23486;51.956;5.888;2024-03-23T14:15:27;9.80;99.90
37642;DHT22;23486;51.956;5.888;2024-03-23T14:17:52;9.70;99.90
37642;DHT22;23486;51.956;5.888;2024-03-23T14:20:20;9.70;99.90
37642;DHT22;23486;51.956;5.888;2024-03-23T14:22:45;9.80;99.90
37642;DHT22;23486;51.956;5.888;2024-03-23T14:25:11;9.90;99.90
37642;DHT22;23486;51.956;5.888;2024-03-23T14:27:36;9.90;99.90
37642;DHT22;23486;51.956;5.888;2024-03-23T14:30:05;9.80;99.90
37642;DHT22;23486;51.956;5.888;2024-03-23T14:32:40;9.70;99.90
37642;DHT22;23486;51.956;5.888;2024-03-23T14:35:06;9.60;99.90
37642;DHT22;23486;51.956;5.888;2024-03-23T14:37:32;9.20;99.90
37642;DHT22;23486;51.956;5.888;2024-03-23T14:39:58;9.00;99.90
37642;DHT22;23486;51.956;5.888;2024-03-23T14:42:24;8.90;99.90
37642;DHT22;23486;51.956;5.888;2024-03-23T14:44:50;8.80;99.90
37642;DHT22;23486;51.956;5.888;2024-03-23T14:47:15;8.60;99.90
37642;DHT22;23486;51.956;5.888;2024-03-23T14:49:43;8.30;99.90
37642;DHT22;23486;51.956;5.888;2024-03-23T14:52:15;8.30;99.90
37642;DHT22;23486;51.956;5.888;2024-03-23T14:54:40;8.20;99.90
37642;DHT22;23486;51.956;5.888;2024-03-23T14:57:05;8.20;99.90
37642;DHT22;23486;51.956;5.888;2024-03-23T14:59:34;8.10;99.90
37642;DHT22;23486;51.956;5.888;2024-03-23T15:02:00;8.20;99.90
37642;DHT22;23486;51.956;5.888;2024-03-23T15:04:25;8.30;99.90
37642;DHT22;23486;51.956;5.888;2024-03-23T15:06:51;8.30;99.90
37642;DHT22;23486;51.956;5.888;2024-03-23T15:09:16;8.30;99.90
37642;DHT22;23486;51.956;5.888;2024-03-23T15:11:43;8.30;99.90
37642;DHT22;23486;51.956;5.888;2024-03-23T15:14:09;8.40;99.90
37642;DHT22;23486;51.956;5.888;2024-03-23T15:16:36;8.40;99.90
37642;DHT22;23486;51.956;5.888;2024-03-23T15:19:01;8.50;99.90
37642;DHT22;23486;51.956;5.888;2024-03-23T15:21:27;8.70;99.90
37642;DHT22;23486;51.956;5.888;2024-03-23T15:23:52;9.00;99.90
37642;DHT22;23486;51.956;5.888;2024-03-23T15:26:18;9.20;99.90
37642;DHT22;23486;51.956;5.888;2024-03-23T15:28:43;9.40;99.90
37642;DHT22;23486;51.956;5.888;2024-03-23T15:31:21;9.60;99.90
37642;DHT22;23486;51.956;5.888;2024-03-23T15:33:47;9.80;99.90
37642;DHT22;23486;51.956;5.888;2024-03-23T15:36:12;9.90;99.90
37642;DHT22;23486;51.956;5.888;2024-03-23T15:38:37;9.90;99.90
37642;DHT22;23486;51.956;5.888;2024-03-23T15:41:06;9.90;99.90
37642;DHT22;23486;51.956;5.888;2024-03-23T15:43:32;9.90;99.90
37642;DHT22;23486;51.956;5.888;2024-03-23T15:45:58;10.20;99.90
37642;DHT22;23486;51.956;5.888;2024-03-23T15:48:25;10.30;99.90
37642;DHT22;23486;51.956;5.888;2024-03-23T15:50:55;10.30;99.90
37642;DHT22;23486;51.956;5.888;2024-03-23T15:53:21;10.40;99.90
37642;DHT22;23486;51.956;5.888;2024-03-23T15:55:53;10.40;99.90
37642;DHT22;23486;51.956;5.888;2024-03-23T15:58:22;10.40;99.90
37642;DHT22;23486;51.956;5.888;2024-03-23T16:01:21;10.40;99.90
37642;DHT22;23486;51.956;5.888;2024-03-23T16:03:39;10.40;99.90
37642;DHT22;23486;51.956;5.888;2024-03-23T16:06:05;10.50;99.90
37642;DHT22;23486;51.956;5.888;2024-03-23T16:08:32;10.50;99.90
37642;DHT22;23486;51.956;5.888;2024-03-23T16:11:05;10.50;99.90
37642;DHT22;23486;51.956;5.888;2024-03-23T16:13:31;10.50;99.90
37642;DHT22;23486;51.956;5.888;2024-03-23T16:16:03;10.60;99.90
37642;DHT22;23486;51.956;5.888;2024-03-23T16:18:31;10.80;99.90
37642;DHT22;23486;51.956;5.888;2024-03-23T16:20:58;10.90;99.90
37642;DHT22;23486;51.956;5.888;2024-03-23T16:23:24;10.80;99.90
37642;DHT22;23486;51.956;5.888;2024-03-23T16:25:49;10.70;99.90
37642;DHT22;23486;51.956;5.888;2024-03-23T16:28:27;10.70;99.90
37642;DHT22;23486;51.956;5.888;2024-03-23T16:30:56;10.60;99.90
37642;DHT22;23486;51.956;5.888;2024-03-23T16:33:24;10.60;99.90
37642;DHT22;23486;51.956;5.888;2024-03-23T16:35:56;10.60;99.90
37642;DHT22;23486;51.956;5.888;2024-03-23T16:38:33;10.60;99.90
37642;DHT22;23486;51.956;5.888;2024-03-23T16:41:02;10.60;99.90
37642;DHT22;23486;51.956;5.888;2024-03-23T16:43:28;10.50;99.90
37642;DHT22;23486;51.956;5.888;2024-03-23T16:48:26;10.40;99.90